Time;durP1;ratioP1;P1;durP2;ratioP2;P2;SDS_P1;SDS_P2;PMS_P1;PMS_P2;Temp;Humidity;BMP_temperature;BMP_pressure;BME280_temperature;BME280_humidity;BME280_pressure;Samples;Min_cycle;Max_cycle;Signal;HPM_P1;HPM_P2
2023/03/22 00:02:49;;;;;;;18.52;10.73;;;;;;;12.15;95.37;100132.31;8292733;28;20534;-55
2023/03/22 00:06:49;;;;;;;16.00;10.05;;;;;;;12.20;95.33;100131.81;8296737;28;20120;-54
2023/03/22 00:10:50;;;;;;;16.85;11.20;;;;;;;12.28;95.15;100124.59;8290819;28;20044;-54
2023/03/22 00:14:51;;;;;;;22.52;10.90;;;;;;;12.27;95.48;100116.63;8291405;28;20096;-54
2023/03/22 00:18:51;;;;;;;17.33;10.68;;;;;;;12.26;95.78;100120.34;8290335;28;20412;-55
2023/03/22 00:22:52;;;;;;;18.77;10.77;;;;;;;12.26;95.69;100112.22;8292779;28;20084;-53
2023/03/22 00:26:52;;;;;;;14.98;10.98;;;;;;;12.19;96.28;100119.25;8298347;28;20084;-53
2023/03/22 00:30:56;;;;;;;23.90;12.18;;;;;;;12.17;95.50;100111.28;8298670;28;20053;-53
2023/03/22 00:35:00;;;;;;;19.25;10.60;;;;;;;12.19;95.67;100105.72;8298697;28;20118;-53
2023/03/22 00:39:01;;;;;;;19.02;11.18;;;;;;;12.16;95.93;100087.06;8297871;28;20053;-57
2023/03/22 00:43:01;;;;;;;21.05;11.05;;;;;;;12.24;95.68;100089.84;8296996;28;20066;-57
2023/03/22 00:47:02;;;;;;;19.65;12.15;;;;;;;12.22;95.47;100081.00;8297381;28;20520;-57
2023/03/22 00:51:03;;;;;;;21.90;11.00;;;;;;;12.11;96.92;100078.59;8297499;28;20030;-57
2023/03/22 00:55:06;;;;;;;17.98;12.20;;;;;;;12.08;97.95;100070.78;8296648;28;20034;-58
2023/03/22 00:59:07;;;;;;;18.65;12.07;;;;;;;12.11;98.06;100065.91;8297126;28;20125;-58
2023/03/22 01:03:08;;;;;;;21.75;11.77;;;;;;;12.19;98.15;100070.47;8297522;28;20556;-58
2023/03/22 01:07:09;;;;;;;18.10;12.00;;;;;;;12.23;97.52;100066.47;8296209;28;20037;-58
2023/03/22 01:11:11;;;;;;;18.42;11.65;;;;;;;12.27;97.40;100062.41;8296960;28;20038;-58
2023/03/22 01:15:12;;;;;;;19.75;11.60;;;;;;;12.29;97.22;100060.41;8296741;28;20069;-58
2023/03/22 01:19:12;;;;;;;17.10;10.82;;;;;;;12.18;97.59;100052.53;8296421;28;20120;-58
2023/03/22 01:23:13;;;;;;;17.98;11.38;;;;;;;12.21;97.63;100046.78;8296099;28;20038;-58
2023/03/22 01:27:15;;;;;;;16.55;11.80;;;;;;;12.31;96.79;100042.94;8296624;28;20066;-58
2023/03/22 01:31:15;;;;;;;22.70;11.55;;;;;;;12.27;96.99;100051.56;8297079;28;20030;-58
2023/03/22 01:35:16;;;;;;;20.50;12.05;;;;;;;12.23;97.86;100042.91;8291098;28;20061;-58
2023/03/22 01:39:17;;;;;;;20.77;12.35;;;;;;;12.26;97.07;100039.03;8263298;28;20042;-58
2023/03/22 01:43:21;;;;;;;19.55;12.63;;;;;;;12.28;97.40;100031.56;8262838;28;20041;-58
2023/03/22 01:47:22;;;;;;;19.77;11.40;;;;;;;12.35;96.70;100027.22;8280137;28;20065;-59
2023/03/22 01:51:24;;;;;;;25.73;11.40;;;;;;;12.33;96.61;100021.09;8294568;28;20041;-58
2023/03/22 01:55:45;;;;;;;18.13;11.25;;;;;;;12.32;96.30;100022.13;8288093;28;20415;-58
2023/03/22 01:59:51;;;;;;;18.27;10.25;;;;;;;12.23;96.90;100012.25;8294815;28;20037;-59
2023/03/22 02:04:08;;;;;;;19.88;9.90;;;;;;;12.13;97.53;100015.09;8290071;28;20046;-59
2023/03/22 02:08:13;;;;;;;19.15;10.52;;;;;;;11.99;98.70;100004.88;8293234;28;20071;-57
2023/03/22 02:12:51;;;;;;;20.50;10.98;;;;;;;11.96;98.92;99993.50;8294968;28;20038;-58
2023/03/22 02:17:22;;;;;;;22.63;10.65;;;;;;;11.88;99.73;99997.88;8295002;28;20477;-58
2023/03/22 02:21:54;;;;;;;20.17;10.40;;;;;;;11.78;100.00;99991.72;8294687;28;20042;-58
2023/03/22 02:31:05;;;;;;;18.90;9.93;;;;;;;11.75;99.31;99986.63;8320707;28;20962;-58
2023/03/22 02:35:45;;;;;;;20.98;10.55;;;;;;;11.75;99.33;99985.78;8320679;28;20415;-58
2023/03/22 02:39:52;;;;;;;20.27;10.48;;;;;;;11.64;99.43;99976.09;8311684;28;20052;-58
2023/03/22 02:44:07;;;;;;;15.48;9.77;;;;;;;11.59;100.00;99970.25;8321008;28;20504;-58
2023/03/22 02:48:30;;;;;;;15.05;9.70;;;;;;;11.58;99.59;99967.72;8320020;28;20045;-52
2023/03/22 02:52:41;;;;;;;19.20;9.52;;;;;;;11.53;99.71;99960.06;8319777;28;20219;-53
2023/03/22 02:56:48;;;;;;;13.88;8.95;;;;;;;11.47;100.00;99952.59;8319807;28;20064;-56
2023/03/22 03:00:54;;;;;;;18.63;10.38;;;;;;;11.43;100.00;99948.50;8320416;28;20408;-54
2023/03/22 03:04:56;;;;;;;16.15;9.27;;;;;;;11.47;100.00;99943.63;8319807;28;20557;-54
2023/03/22 03:09:01;;;;;;;16.02;8.77;;;;;;;11.51;100.00;99948.56;8319544;28;20519;-54
2023/03/22 03:13:02;;;;;;;17.33;9.30;;;;;;;11.59;99.82;99947.78;8318153;28;20056;-54
2023/03/22 03:17:27;;;;;;;12.40;8.75;;;;;;;11.66;98.91;99951.56;8319100;28;20045;-53
2023/03/22 03:21:37;;;;;;;13.73;7.30;;;;;;;11.57;98.95;99945.22;8319477;28;20048;-54
2023/03/22 03:30:14;;;;;;;13.85;7.97;;;;;;;11.77;97.28;99946.69;8352730;27;21020;-58
2023/03/22 03:34:25;;;;;;;10.90;6.97;;;;;;;11.80;96.64;99946.38;8353841;28;20491;-53
2023/03/22 03:38:30;;;;;;;17.08;7.80;;;;;;;11.78;96.56;99948.38;8353333;28;20506;-53
2023/03/22 03:42:34;;;;;;;13.32;7.60;;;;;;;11.77;96.25;99952.13;8353579;28;20045;-53
2023/03/22 03:46:39;;;;;;;12.85;6.82;;;;;;;11.77;96.09;99952.13;8352625;28;20410;-53
2023/03/22 03:50:41;;;;;;;12.10;6.82;;;;;;;11.77;96.51;99951.25;8352467;28;20037;-59
2023/03/22 03:54:44;;;;;;;13.20;7.80;;;;;;;11.72;96.41;99943.63;8352662;28;20080;-53
2023/03/22 03:58:49;;;;;;;11.75;7.38;;;;;;;11.67;96.85;99940.56;8352678;28;20040;-54
2023/03/22 04:02:50;;;;;;;15.02;8.00;;;;;;;11.61;97.04;99941.19;8353035;28;20044;-54
2023/03/22 04:07:10;;;;;;;15.23;7.50;;;;;;;11.60;97.13;99939.47;8383433;28;20072;-56
2023/03/22 04:11:12;;;;;;;12.20;7.75;;;;;;;11.55;97.65;99951.78;8384301;28;20078;-53
2023/03/22 04:15:14;;;;;;;14.20;7.45;;;;;;;11.43;98.04;99945.81;8384646;28;20047;-54
2023/03/22 04:19:17;;;;;;;12.60;7.72;;;;;;;11.36;98.48;99938.47;8337916;28;20045;-54
2023/03/22 04:23:21;;;;;;;13.15;8.10;;;;;;;11.32;98.61;99932.53;8329332;28;20401;-54
2023/03/22 04:27:22;;;;;;;13.97;8.13;;;;;;;11.24;98.79;99937.03;8333550;28;20041;-61
2023/03/22 04:31:30;;;;;;;17.15;8.27;;;;;;;11.11;98.71;99910.44;8327797;28;20508;-59
2023/03/22 04:35:37;;;;;;;16.13;8.20;;;;;;;10.95;99.42;99915.69;8347961;28;20041;-59
2023/03/22 04:39:38;;;;;;;12.07;7.75;;;;;;;10.78;100.00;99919.31;8337435;28;20041;-59
2023/03/22 04:44:02;;;;;;;15.45;8.38;;;;;;;10.75;100.00;99919.63;8326732;28;20038;-59
2023/03/22 04:48:06;;;;;;;12.73;7.45;;;;;;;10.79;100.00;99904.75;8327907;28;20064;-59
2023/03/22 04:52:08;;;;;;;14.57;8.15;;;;;;;10.74;100.00;99901.69;8328911;28;20041;-59
2023/03/22 04:56:12;;;;;;;16.90;8.45;;;;;;;10.70;100.00;99908.41;8320151;28;20037;-58
2023/03/22 05:00:14;;;;;;;12.30;7.90;;;;;;;10.65;100.00;99910.75;8329678;28;20041;-59
2023/03/22 05:04:17;;;;;;;14.85;8.52;;;;;;;10.67;100.00;99919.53;8329985;28;20519;-59
2023/03/22 05:08:19;;;;;;;16.58;8.65;;;;;;;10.65;100.00;99909.88;8329899;28;20037;-60
2023/03/22 05:12:22;;;;;;;15.23;8.43;;;;;;;10.43;100.00;99913.91;8329443;28;20045;-59
2023/03/22 05:16:27;;;;;;;16.02;9.40;;;;;;;10.29;100.00;99905.50;8327572;28;20057;-59
2023/03/22 05:20:27;;;;;;;19.02;8.98;;;;;;;10.24;100.00;99905.13;8326898;28;20056;-60
2023/03/22 05:24:44;;;;;;;16.73;9.35;;;;;;;10.21;100.00;99903.56;8319991;28;20037;-59
2023/03/22 05:28:50;;;;;;;17.83;9.52;;;;;;;10.21;100.00;99903.56;8334520;28;20045;-59
2023/03/22 05:33:02;;;;;;;22.15;9.73;;;;;;;10.12;100.00;99914.44;8327324;28;20038;-59
2023/03/22 05:37:03;;;;;;;15.82;9.80;;;;;;;10.25;100.00;99917.63;8328641;28;20037;-61
2023/03/22 05:41:15;;;;;;;18.27;9.10;;;;;;;10.33;100.00;99915.84;8332512;28;20083;-61
2023/03/22 05:45:16;;;;;;;14.95;8.65;;;;;;;10.46;100.00;99919.00;8359730;28;20037;-61
2023/03/22 05:49:21;;;;;;;22.60;9.32;;;;;;;10.60;100.00;99921.16;8325445;28;20050;-61
2023/03/22 05:53:22;;;;;;;16.13;9.23;;;;;;;10.85;100.00;99930.31;8327502;28;20507;-61
2023/03/22 05:57:29;;;;;;;16.00;8.65;;;;;;;10.88;100.00;99928.16;8325833;28;20052;-62
2023/03/22 06:01:30;;;;;;;19.85;9.63;;;;;;;10.89;100.00;99910.91;8324915;28;20419;-62
2023/03/22 06:05:45;;;;;;;21.33;8.80;;;;;;;11.02;100.00;99905.13;8324324;28;20037;-62
2023/03/22 06:09:48;;;;;;;12.75;7.90;;;;;;;11.08;100.00;99923.41;8323899;28;20046;-61
2023/03/22 06:13:52;;;;;;;13.80;8.18;;;;;;;11.20;100.00;99925.69;8302629;28;20038;-62
2023/03/22 06:17:55;;;;;;;15.07;6.97;;;;;;;11.26;100.00;99914.22;8310535;28;20037;-62
2023/03/22 06:22:00;;;;;;;17.23;7.43;;;;;;;11.49;98.84;99914.53;8312761;28;20095;-62
2023/03/22 06:26:01;;;;;;;16.55;6.50;;;;;;;11.62;98.29;99936.66;8312769;28;20231;-61
2023/03/22 06:30:02;;;;;;;11.82;5.78;;;;;;;11.72;97.10;99924.66;8315479;28;20055;-59
2023/03/22 06:34:06;;;;;;;9.60;5.85;;;;;;;11.85;95.20;99916.09;8315529;28;20064;-62
2023/03/22 06:38:15;;;;;;;8.35;4.45;;;;;;;12.11;93.81;99922.28;8316473;28;20033;-52
2023/03/22 06:42:17;;;;;;;7.72;3.80;;;;;;;12.23;92.83;99925.53;8316864;28;20533;-58
2023/03/22 06:46:22;;;;;;;10.40;3.65;;;;;;;12.42;91.46;99925.22;8334190;28;20042;-59
2023/03/22 06:50:36;;;;;;;10.88;3.08;;;;;;;12.68;89.86;99921.38;8319387;28;20049;-59
2023/03/22 06:54:42;;;;;;;17.13;3.10;;;;;;;13.08;86.65;99920.53;8310565;28;20038;-58
2023/03/22 06:58:43;;;;;;;6.00;2.33;;;;;;;13.31;84.45;99916.97;8318601;28;20060;-53
2023/03/22 07:02:44;;;;;;;6.93;2.10;;;;;;;13.35;84.37;99921.00;8319173;28;20127;-52
2023/03/22 07:07:04;;;;;;;7.82;2.13;;;;;;;13.48;83.72;99924.03;8318791;28;20038;-54
2023/03/22 07:11:05;;;;;;;7.28;2.00;;;;;;;13.75;81.74;99912.75;8320556;28;20652;-54
2023/03/22 07:15:07;;;;;;;9.68;1.63;;;;;;;14.19;80.35;99909.50;8317748;28;20411;-54
2023/03/22 07:19:21;;;;;;;4.32;1.23;;;;;;;14.39;78.44;99905.34;8289021;28;20044;-54
2023/03/22 07:23:21;;;;;;;10.45;2.25;;;;;;;14.23;79.11;99894.50;8312177;28;20057;-54
2023/03/22 07:27:26;;;;;;;5.47;1.65;;;;;;;14.19;78.87;99894.03;8321494;28;20045;-53
2023/03/22 07:31:28;;;;;;;12.15;2.35;;;;;;;14.22;78.06;99890.97;8321742;28;20045;-54
2023/03/22 07:35:33;;;;;;;6.28;1.70;;;;;;;14.19;77.54;99893.19;8321802;28;20069;-54
2023/03/22 07:39:34;;;;;;;13.93;2.28;;;;;;;14.12;77.69;99895.75;8321777;28;20438;-54
2023/03/22 07:43:35;;;;;;;10.07;2.00;;;;;;;14.08;77.05;99890.84;8321495;28;20503;-54
2023/03/22 07:47:45;;;;;;;3.58;1.38;;;;;;;14.08;76.29;99891.69;8314796;28;20048;-54
2023/03/22 07:52:06;;;;;;;9.48;2.05;;;;;;;14.19;75.24;99893.19;8302158;28;20033;-53
2023/03/22 07:56:07;;;;;;;6.32;1.75;;;;;;;14.43;73.99;99895.78;8321093;28;20033;-60
2023/03/22 08:00:09;;;;;;;4.72;1.50;;;;;;;14.83;72.55;99896.34;8321907;28;20121;-60
2023/03/22 08:04:21;;;;;;;3.80;0.90;;;;;;;14.99;70.88;99898.91;8321202;28;20046;-55
2023/03/22 08:08:30;;;;;;;5.10;1.05;;;;;;;15.19;69.73;99904.69;8320726;28;20049;-54
2023/03/22 08:12:31;;;;;;;3.28;1.00;;;;;;;15.39;68.88;99904.00;8319612;28;20066;-55
2023/03/22 08:16:42;;;;;;;3.03;1.40;;;;;;;15.28;68.03;99898.94;8326576;28;20049;-54
2023/03/22 08:20:45;;;;;;;5.13;1.00;;;;;;;15.14;67.61;99902.50;8327176;28;20411;-55
2023/03/22 08:24:51;;;;;;;4.70;0.93;;;;;;;14.96;68.21;99899.28;8326335;28;20044;-55
2023/03/22 08:28:59;;;;;;;4.45;1.23;;;;;;;15.02;68.81;99909.44;8326520;28;20049;-55
2023/03/22 08:33:03;;;;;;;4.37;0.97;;;;;;;15.19;68.18;99904.69;8325284;28;20029;-54
2023/03/22 08:37:05;;;;;;;5.13;1.15;;;;;;;15.30;68.86;99915.97;8293504;28;20097;-54
2023/03/22 08:41:06;;;;;;;2.22;0.95;;;;;;;15.43;68.77;99910.75;8260749;28;20038;-54
2023/03/22 08:45:09;;;;;;;3.97;0.80;;;;;;;15.54;68.81;99914.88;8260577;28;20065;-54
2023/03/22 08:49:15;;;;;;;3.60;1.48;;;;;;;15.68;68.55;99912.16;8293215;28;20048;-54
2023/03/22 08:53:22;;;;;;;4.57;0.80;;;;;;;15.61;67.74;99913.09;8324618;28;20041;-54
2023/03/22 08:57:32;;;;;;;3.28;0.98;;;;;;;15.63;68.23;99909.16;8325722;28;20061;-55
2023/03/22 09:01:49;;;;;;;2.10;0.88;;;;;;;15.69;68.58;99905.69;8318331;28;20419;-54
2023/03/22 09:05:49;;;;;;;1.42;0.77;;;;;;;16.08;66.79;99904.53;8325774;28;20033;-54
2023/03/22 09:09:50;;;;;;;1.52;0.73;;;;;;;15.95;67.18;99898.91;8325662;28;20128;-50
2023/03/22 09:13:51;;;;;;;4.63;0.90;;;;;;;15.83;66.69;99903.16;8326045;28;20033;-54
2023/03/22 09:17:53;;;;;;;2.50;0.60;;;;;;;16.05;66.50;99904.91;8311334;28;20042;-54
2023/03/22 09:21:53;;;;;;;3.20;1.00;;;;;;;15.95;65.89;99886.09;8308279;28;20072;-54
2023/03/22 09:26:08;;;;;;;3.13;0.60;;;;;;;16.52;66.25;99889.75;8327931;28;20365;-54
2023/03/22 09:30:10;;;;;;;4.40;0.80;;;;;;;17.02;64.46;99884.13;8350264;28;20040;-56
2023/03/22 09:34:10;;;;;;;1.50;0.60;;;;;;;17.56;61.30;99889.84;8327809;28;20785;-55
2023/03/22 09:38:12;;;;;;;2.97;0.60;;;;;;;17.37;61.19;99885.06;8327567;28;20044;-54
2023/03/22 09:42:30;;;;;;;3.33;0.80;;;;;;;17.07;61.33;99883.56;8328316;28;20037;-54
2023/03/22 09:46:37;;;;;;;5.50;0.80;;;;;;;17.50;61.50;99879.69;8325005;28;20051;-54
2023/03/22 09:50:44;;;;;;;3.87;0.70;;;;;;;17.94;60.72;99882.91;8352006;28;20522;-54
2023/03/22 09:54:45;;;;;;;5.88;0.85;;;;;;;18.14;59.84;99883.84;8317690;28;20041;-54
2023/03/22 09:58:55;;;;;;;3.05;1.00;;;;;;;17.66;61.10;99878.56;8327943;28;20407;-55
2023/03/22 10:03:11;;;;;;;3.40;0.80;;;;;;;17.63;60.80;99874.34;8327521;28;20041;-55
2023/03/22 10:07:36;;;;;;;4.35;0.63;;;;;;;18.14;60.65;99872.88;8324981;28;20049;-54
2023/03/22 10:11:45;;;;;;;3.35;0.63;;;;;;;18.90;58.19;99875.22;8326713;28;20458;-55
2023/03/22 10:15:52;;;;;;;3.38;0.73;;;;;;;19.07;57.90;99871.00;8326275;28;20075;-55
2023/03/22 10:20:04;;;;;;;4.90;1.23;;;;;;;18.75;59.17;99843.56;8326497;28;20034;-54
2023/03/22 10:24:28;;;;;;;1.42;0.52;;;;;;;18.97;58.01;99843.16;8327347;28;20033;-54
2023/03/22 10:28:37;;;;;;;2.47;0.80;;;;;;;18.26;58.18;99849.34;8326313;28;20052;-54
2023/03/22 10:33:00;;;;;;;3.42;1.13;;;;;;;17.26;60.47;99866.50;8326670;28;20047;-54
2023/03/22 10:37:04;;;;;;;2.10;0.80;;;;;;;16.65;61.90;99868.06;8341166;28;20099;-55
2023/03/22 10:41:05;;;;;;;2.47;0.80;;;;;;;16.43;63.03;99880.00;8326870;28;20033;-55
2023/03/22 10:45:11;;;;;;;4.95;1.40;;;;;;;16.14;63.65;99879.22;8326543;28;20147;-54
2023/03/22 10:49:23;;;;;;;5.30;1.00;;;;;;;16.04;64.64;99878.69;8289648;28;20412;-55
2023/03/22 10:53:44;;;;;;;2.38;0.93;;;;;;;15.91;64.74;99873.91;8318118;28;20045;-54
2023/03/22 10:57:56;;;;;;;7.10;2.05;;;;;;;15.91;65.82;99873.03;8325812;28;20050;-54
2023/03/22 11:01:56;;;;;;;3.50;0.70;;;;;;;15.88;65.35;99868.81;8326499;28;20057;-54
2023/03/22 11:06:03;;;;;;;3.20;0.95;;;;;;;15.88;64.66;99878.88;8325969;28;20040;-55
2023/03/22 11:14:41;;;;;;;4.75;1.15;;;;;;;15.77;67.26;99868.47;8412307;27;20966;-53
2023/03/22 11:18:42;;;;;;;3.53;0.95;;;;;;;15.93;66.40;99870.97;8399575;27;20047;-53
2023/03/22 11:22:45;;;;;;;2.40;0.90;;;;;;;16.02;65.45;99875.28;8404370;27;20074;-53
2023/03/22 11:27:15;;;;;;;4.95;1.00;;;;;;;16.01;64.76;99879.06;8402605;27;20109;-54
2023/03/22 11:31:19;;;;;;;2.70;1.00;;;;;;;16.03;66.34;99882.44;8403209;27;20036;-53
2023/03/22 11:35:22;;;;;;;3.70;1.27;;;;;;;15.87;65.93;99871.75;8402887;27;20517;-53
2023/03/22 11:39:27;;;;;;;3.20;1.05;;;;;;;15.73;65.87;99872.63;8403519;27;20029;-54
2023/03/22 11:43:38;;;;;;;4.88;1.30;;;;;;;15.63;68.32;99857.41;8403332;27;20495;-53
2023/03/22 11:47:38;;;;;;;3.85;1.10;;;;;;;15.59;67.79;99858.78;8402279;27;20048;-53
2023/03/22 11:51:39;;;;;;;3.20;1.30;;;;;;;15.57;68.51;99860.03;8406956;27;20101;-53
2023/03/22 11:55:40;;;;;;;2.30;0.90;;;;;;;15.52;67.27;99857.84;8401987;27;20059;-54
2023/03/22 12:04:19;;;;;;;4.72;1.23;;;;;;;15.42;68.71;99857.31;8405095;27;20834;-54
2023/03/22 12:08:27;;;;;;;4.35;1.10;;;;;;;15.41;68.58;99858.31;8400632;27;20100;-53
2023/03/22 12:12:32;;;;;;;3.83;1.00;;;;;;;15.36;68.25;99849.00;8399116;27;20411;-53
2023/03/22 12:16:43;;;;;;;3.83;1.30;;;;;;;15.41;69.12;99841.97;8381269;27;20571;-53
2023/03/22 12:20:54;;;;;;;5.20;1.35;;;;;;;15.43;68.82;99837.19;8386326;27;20044;-54
2023/03/22 12:24:55;;;;;;;3.03;1.10;;;;;;;15.53;67.69;99843.19;8386435;27;20051;-54
2023/03/22 12:29:01;;;;;;;4.22;0.75;;;;;;;15.55;68.83;99838.41;8381456;27;20032;-53
2023/03/22 12:33:08;;;;;;;3.67;0.90;;;;;;;15.56;67.52;99837.38;8392459;27;20090;-54
2023/03/22 12:37:16;;;;;;;5.18;0.80;;;;;;;15.48;67.95;99832.03;8382959;27;20071;-53
2023/03/22 12:41:25;;;;;;;3.75;1.00;;;;;;;15.43;69.12;99831.75;8390909;27;20037;-58
2023/03/22 12:45:28;;;;;;;2.22;1.08;;;;;;;15.40;69.94;99826.66;8442882;27;20048;-58
2023/03/22 12:49:42;;;;;;;4.80;0.80;;;;;;;15.41;69.69;99828.34;8375919;28;20570;-60
2023/03/22 12:53:51;;;;;;;3.45;0.93;;;;;;;15.45;69.73;99831.56;8380388;28;20045;-58
2023/03/22 12:57:53;;;;;;;7.15;1.45;;;;;;;15.53;69.75;99815.94;8438187;27;20508;-58
2023/03/22 13:02:00;;;;;;;3.03;1.27;;;;;;;15.51;71.95;99828.09;8414446;27;20063;-58
2023/03/22 13:06:05;;;;;;;3.47;1.25;;;;;;;15.53;71.86;99821.41;8390120;27;20044;-58
2023/03/22 13:19:17;;;;;;;3.30;1.10;;;;;;;15.97;70.71;99806.84;8311627;28;20842;-59
2023/03/22 13:23:26;;;;;;;12.48;1.52;;;;;;;15.95;70.51;99811.66;8302363;28;20364;-59
2023/03/22 13:28:06;;;;;;;5.18;1.25;;;;;;;16.02;70.42;99807.13;8314050;28;20033;-59
2023/03/22 13:32:29;;;;;;;4.55;1.80;;;;;;;15.96;69.49;99810.63;8304328;28;20038;-59
2023/03/22 13:36:30;;;;;;;8.40;1.90;;;;;;;15.77;71.83;99807.47;8283136;28;20046;-59
2023/03/22 13:40:36;;;;;;;4.72;1.40;;;;;;;15.80;71.11;99799.94;8311485;28;20041;-59
2023/03/22 13:44:41;;;;;;;7.97;1.42;;;;;;;15.83;70.53;99796.84;8312606;28;20053;-59
2023/03/22 13:48:53;;;;;;;3.88;1.00;;;;;;;15.88;70.55;99791.63;8319057;28;20034;-59
2023/03/22 13:53:04;;;;;;;3.72;1.15;;;;;;;15.94;70.31;99796.31;8302862;28;20516;-59
2023/03/22 13:57:16;;;;;;;6.47;1.20;;;;;;;15.97;71.13;99785.03;8313235;28;20508;-59
2023/03/22 14:05:37;;;;;;;3.70;0.80;;;;;;;15.86;69.72;99791.00;8414823;27;20785;-54
2023/03/22 14:09:48;;;;;;;3.72;0.90;;;;;;;15.76;71.11;99798.66;8406391;28;20044;-60
2023/03/22 14:13:55;;;;;;;6.28;1.15;;;;;;;15.77;70.67;99791.09;8399514;28;20038;-60
2023/03/22 14:18:01;;;;;;;4.28;0.85;;;;;;;15.71;71.36;99785.59;8410046;28;20036;-60
2023/03/22 14:22:07;;;;;;;4.10;1.17;;;;;;;15.72;70.28;99787.28;8413295;28;20419;-60
2023/03/22 14:26:16;;;;;;;4.20;1.23;;;;;;;15.65;69.57;99759.94;8400902;28;20435;-60
2023/03/22 14:30:25;;;;;;;5.55;1.38;;;;;;;15.84;70.12;99774.84;8433790;28;20506;-60
2023/03/22 14:34:30;;;;;;;4.70;1.08;;;;;;;15.87;70.35;99777.19;8372662;28;20037;-60
2023/03/22 14:38:38;;;;;;;4.30;1.13;;;;;;;15.90;71.54;99775.94;8387295;28;20037;-60
2023/03/22 14:42:38;;;;;;;4.63;1.10;;;;;;;15.92;69.97;99779.34;8373442;28;20045;-60
2023/03/22 14:46:39;;;;;;;5.70;1.10;;;;;;;15.95;69.84;99787.13;8377482;28;20554;-60
2023/03/22 14:50:45;;;;;;;5.35;1.20;;;;;;;15.96;69.90;99772.44;8355902;28;20453;-52
2023/03/22 14:54:48;;;;;;;9.50;1.42;;;;;;;16.02;70.24;99774.41;8359671;28;20057;-59
2023/03/22 14:58:52;;;;;;;4.22;0.90;;;;;;;15.95;71.18;99759.88;8372878;28;20052;-60
2023/03/22 15:03:00;;;;;;;4.55;1.20;;;;;;;15.82;71.18;99762.47;8364794;28;20056;-60
2023/03/22 15:07:02;;;;;;;3.92;1.10;;;;;;;15.81;70.91;99769.78;8367568;28;20040;-55
2023/03/22 15:11:06;;;;;;;3.38;1.13;;;;;;;15.70;71.38;99762.94;8378594;28;20052;-54
2023/03/22 15:15:07;;;;;;;6.80;1.53;;;;;;;15.70;71.32;99756.63;8367071;28;20033;-54
2023/03/22 15:19:13;;;;;;;5.32;1.00;;;;;;;15.59;71.65;99744.34;8347250;28;20107;-54
2023/03/22 15:23:18;;;;;;;5.57;1.23;;;;;;;15.65;72.16;99754.47;8334800;28;20029;-54
2023/03/22 15:27:20;;;;;;;2.95;1.38;;;;;;;15.67;71.98;99746.13;8321009;28;20516;-54
2023/03/22 15:31:24;;;;;;;4.10;0.80;;;;;;;15.69;72.29;99739.47;8323459;28;20449;-53
2023/03/22 15:35:25;;;;;;;3.47;1.08;;;;;;;15.77;72.00;99736.59;8321327;28;20055;-53
2023/03/22 15:39:38;;;;;;;2.10;0.70;;;;;;;15.81;72.03;99725.31;8323092;28;20106;-54
2023/03/22 15:43:39;;;;;;;4.88;1.13;;;;;;;15.84;72.19;99730.38;8327880;28;20041;-54
2023/03/22 15:47:45;;;;;;;1.92;0.75;;;;;;;15.87;71.71;99719.09;8329936;28;20048;-57
2023/03/22 15:51:45;;;;;;;4.63;1.05;;;;;;;15.80;72.92;99720.91;8334341;28;20037;-54
2023/03/22 15:55:46;;;;;;;4.63;1.40;;;;;;;15.77;72.96;99714.78;8344025;28;20091;-54
2023/03/22 16:00:08;;;;;;;3.65;1.15;;;;;;;15.77;72.85;99717.50;8327814;28;20593;-53
2023/03/22 16:04:17;;;;;;;6.88;1.13;;;;;;;15.73;73.19;99729.84;8345743;28;20040;-53
2023/03/22 16:08:18;;;;;;;7.05;0.98;;;;;;;15.77;72.78;99736.59;8336658;28;20044;-53
2023/03/22 16:12:20;;;;;;;9.52;1.40;;;;;;;15.73;73.00;99736.34;8343281;28;20042;-53
2023/03/22 16:16:24;;;;;;;3.97;1.10;;;;;;;15.74;72.87;99742.44;8333562;28;20057;-53
2023/03/22 16:20:31;;;;;;;3.03;1.67;;;;;;;15.71;72.83;99726.47;8354429;28;20037;-53
2023/03/22 16:24:31;;;;;;;4.57;1.30;;;;;;;15.71;72.67;99734.63;8323419;28;20523;-53
2023/03/22 16:28:32;;;;;;;3.13;1.10;;;;;;;15.76;71.85;99730.50;8334591;28;20084;-55
2023/03/22 16:32:32;;;;;;;2.55;1.30;;;;;;;15.74;72.12;99731.53;8336765;28;20045;-53
2023/03/22 16:36:33;;;;;;;6.90;1.63;;;;;;;15.70;72.68;99729.38;8334795;28;20415;-54
2023/03/22 16:40:34;;;;;;;6.50;1.33;;;;;;;15.68;72.43;99731.47;8330862;28;20269;-54
2023/03/22 16:44:35;;;;;;;4.30;0.90;;;;;;;15.59;73.58;99719.81;8337198;28;20761;-53
2023/03/22 16:48:36;;;;;;;5.18;1.27;;;;;;;15.60;73.50;99735.16;8344421;28;20531;-54
2023/03/22 16:52:37;;;;;;;4.75;1.38;;;;;;;15.57;73.40;99724.66;8332721;28;20037;-53
2023/03/22 16:56:37;;;;;;;4.28;1.10;;;;;;;15.61;73.40;99731.38;8335707;28;20127;-58
2023/03/22 17:00:39;;;;;;;5.68;1.42;;;;;;;15.60;73.49;99721.53;8343715;28;20114;-54
2023/03/22 17:04:39;;;;;;;4.15;1.65;;;;;;;15.60;74.22;99718.81;8354701;28;20049;-55
2023/03/22 17:08:40;;;;;;;4.25;1.70;;;;;;;15.55;73.87;99726.72;8345189;28;20047;-56
2023/03/22 17:12:41;;;;;;;3.03;1.67;;;;;;;15.57;74.24;99719.19;8347722;28;20433;-54
2023/03/22 17:16:42;;;;;;;3.30;1.63;;;;;;;15.54;74.09;99719.56;8332915;28;20041;-55
2023/03/22 17:20:44;;;;;;;3.92;1.90;;;;;;;15.52;74.46;99724.38;8345850;28;20068;-59
2023/03/22 17:24:46;;;;;;;5.95;1.55;;;;;;;15.52;74.37;99704.44;8343693;28;20090;-55
2023/03/22 17:28:46;;;;;;;8.70;1.98;;;;;;;15.44;75.14;99715.47;8351598;28;20037;-55
2023/03/22 17:32:48;;;;;;;19.55;3.17;;;;;;;15.40;74.78;99709.53;8352193;28;20102;-55
2023/03/22 17:36:48;;;;;;;5.88;2.10;;;;;;;15.45;74.82;99715.28;8344590;28;20036;-55
2023/03/22 17:40:49;;;;;;;5.32;1.95;;;;;;;15.37;75.74;99712.66;8349533;28;20037;-61
2023/03/22 17:44:49;;;;;;;7.70;1.67;;;;;;;15.37;75.54;99706.38;8333527;28;20447;-55
2023/03/22 17:48:50;;;;;;;7.15;2.00;;;;;;;15.30;76.14;99713.56;8343110;28;20542;-55
2023/03/22 17:52:51;;;;;;;4.50;1.98;;;;;;;15.25;76.73;99725.03;8345546;28;20136;-54
2023/03/22 17:56:51;;;;;;;5.88;2.33;;;;;;;15.30;75.63;99708.13;8346599;28;20057;-54
2023/03/22 18:00:52;;;;;;;6.63;2.08;;;;;;;15.28;75.86;99700.13;8347816;28;20531;-54
2023/03/22 18:04:52;;;;;;;5.25;2.10;;;;;;;15.24;76.47;99701.56;8318215;28;20132;-53
2023/03/22 18:08:53;;;;;;;11.48;3.67;;;;;;;15.13;77.25;99703.94;8329494;28;20506;-54
2023/03/22 18:12:55;;;;;;;8.50;2.55;;;;;;;15.20;76.80;99705.72;8323148;28;20341;-54
2023/03/22 18:16:56;;;;;;;5.50;2.67;;;;;;;15.24;76.66;99722.50;8331988;28;20044;-60
2023/03/22 18:21:02;;;;;;;10.57;3.78;;;;;;;15.21;77.19;99711.97;8341446;28;20045;-60
2023/03/22 18:25:03;;;;;;;8.32;3.10;;;;;;;15.26;76.42;99713.13;8319926;28;20056;-60
2023/03/22 18:29:03;;;;;;;7.93;3.15;;;;;;;15.20;77.00;99715.75;8333636;28;20095;-60
2023/03/22 18:33:04;;;;;;;7.93;3.40;;;;;;;15.21;77.07;99720.16;8336033;28;20071;-60
2023/03/22 18:37:07;;;;;;;7.07;2.53;;;;;;;15.19;76.81;99714.91;8340494;28;20052;-60
2023/03/22 18:41:11;;;;;;;4.88;2.70;;;;;;;15.20;77.32;99705.72;8329586;28;20032;-60
2023/03/22 18:45:14;;;;;;;6.18;3.65;;;;;;;15.13;77.67;99709.38;8339197;28;20033;-59
2023/03/22 18:49:15;;;;;;;6.20;2.75;;;;;;;15.16;77.65;99709.81;8347394;28;20056;-59
2023/03/22 18:53:15;;;;;;;6.35;2.85;;;;;;;15.16;77.38;99715.28;8347693;28;20048;-59
2023/03/22 18:57:15;;;;;;;6.75;2.50;;;;;;;15.19;77.30;99701.28;8333164;28;20400;-61
2023/03/22 19:01:16;;;;;;;5.82;2.50;;;;;;;15.11;78.04;99695.97;8339955;28;20122;-61
2023/03/22 19:05:17;;;;;;;6.43;2.78;;;;;;;15.17;77.69;99697.94;8342502;28;20411;-60
2023/03/22 19:09:17;;;;;;;5.75;2.28;;;;;;;15.19;77.89;99698.56;8347518;28;20044;-60
2023/03/22 19:13:19;;;;;;;4.75;1.92;;;;;;;15.20;77.62;99683.94;8347947;28;20045;-61
2023/03/22 19:17:20;;;;;;;6.15;2.47;;;;;;;15.16;78.49;99676.34;8345464;28;20041;-59
2023/03/22 19:21:20;;;;;;;7.38;2.92;;;;;;;15.16;78.31;99682.59;8338167;28;20171;-58
2023/03/22 19:25:20;;;;;;;4.13;2.38;;;;;;;15.16;78.41;99669.00;8337364;28;20116;-58
2023/03/22 19:29:21;;;;;;;9.65;3.08;;;;;;;15.18;78.62;99666.94;8335939;28;20168;-53
2023/03/22 19:33:22;;;;;;;7.93;3.70;;;;;;;15.16;78.54;99669.00;8339677;28;20064;-53
2023/03/22 19:37:22;;;;;;;7.00;2.45;;;;;;;15.09;80.21;99657.19;8340311;28;20345;-59